Time;durP1;ratioP1;P1;durP2;ratioP2;P2;SDS_P1;SDS_P2;PMS_P1;PMS_P2;Temp;Humidity;BMP_temperature;BMP_pressure;BME280_temperature;BME280_humidity;BME280_pressure;Samples;Min_cycle;Max_cycle;Signal;HPM_P1;HPM_P2
2022/04/18 00:02:17;;;;;;;15.93;9.32;;;8.60;71.60;;;;;;4996614;28;20084;-78
2022/04/18 00:04:43;;;;;;;17.65;10.15;;;8.50;71.70;;;;;;4979915;28;20125;-79
2022/04/18 00:07:10;;;;;;;15.20;10.23;;;10.30;72.80;;;;;;4980942;28;20180;-79
2022/04/18 00:09:36;;;;;;;15.98;9.32;;;8.40;72.20;;;;;;4980750;28;20107;-81
2022/04/18 00:12:02;;;;;;;16.83;8.95;;;8.30;72.40;;;;;;4996291;28;20042;-81
2022/04/18 00:14:28;;;;;;;16.70;11.05;;;8.30;72.60;;;;;;4996902;28;20114;-80
2022/04/18 00:16:53;;;;;;;17.10;9.27;;;8.20;72.90;;;;;;5005201;28;20141;-81
2022/04/18 00:19:19;;;;;;;20.80;10.40;;;8.40;73.30;;;;;;4997217;28;20042;-81
2022/04/18 00:21:45;;;;;;;17.23;10.10;;;8.20;73.30;;;;;;4980615;28;20042;-80
2022/04/18 00:24:11;;;;;;;16.52;10.52;;;9.40;74.40;;;;;;4980063;28;20139;-78
2022/04/18 00:26:39;;;;;;;19.88;11.38;;;8.20;74.00;;;;;;4983055;28;20176;-80
2022/04/18 00:29:06;;;;;;;15.02;9.77;;;8.10;73.80;;;;;;5009478;28;20038;-81
2022/04/18 00:31:31;;;;;;;16.10;9.68;;;8.20;74.10;;;;;;5001331;28;20049;-81
2022/04/18 00:33:57;;;;;;;20.60;10.57;;;8.10;74.30;;;;;;5009809;28;20056;-79
2022/04/18 00:36:22;;;;;;;15.90;10.75;;;8.10;74.70;;;;;;5010389;28;20085;-78
2022/04/18 00:38:48;;;;;;;15.60;10.48;;;8.10;74.90;;;;;;4984416;28;20132;-79
2022/04/18 00:41:14;;;;;;;17.55;10.68;;;7.70;75.10;;;;;;5011131;28;20504;-83
2022/04/18 00:43:47;;;;;;;16.13;9.25;;;8.00;75.30;;;;;;4974066;28;20493;-80
2022/04/18 00:46:15;;;;;;;15.67;9.93;;;8.00;75.70;;;;;;5003765;28;20135;-80
2022/04/18 00:48:41;;;;;;;13.93;10.20;;;8.00;75.80;;;;;;4991177;28;20312;-80
2022/04/18 00:51:11;;;;;;;16.02;9.85;;;8.00;76.10;;;;;;5018142;28;20116;-81
2022/04/18 00:53:37;;;;;;;20.85;9.60;;;8.00;76.00;;;;;;4990310;28;20050;-80
2022/04/18 00:56:08;;;;;;;18.08;10.63;;;7.90;76.30;;;;;;4985822;28;20163;-80
2022/04/18 00:58:35;;;;;;;16.38;9.57;;;7.60;76.40;;;;;;4989310;28;20045;-80
2022/04/18 01:01:01;;;;;;;16.27;9.57;;;7.40;76.70;;;;;;4985872;28;20061;-81
2022/04/18 01:03:30;;;;;;;14.73;10.30;;;7.40;77.20;;;;;;4988341;28;20041;-81
2022/04/18 01:05:57;;;;;;;15.65;9.82;;;7.50;77.20;;;;;;4984849;28;20463;-80
2022/04/18 01:08:25;;;;;;;16.63;10.20;;;7.80;77.30;;;;;;4971880;28;20387;-81
2022/04/18 01:10:52;;;;;;;13.80;9.70;;;8.20;77.60;;;;;;5002171;28;20034;-81
2022/04/18 01:13:18;;;;;;;15.70;9.70;;;7.70;77.70;;;;;;4986208;28;20084;-81
2022/04/18 01:15:43;;;;;;;15.68;10.95;;;7.70;77.70;;;;;;5001885;28;20132;-78
2022/04/18 01:18:09;;;;;;;15.98;9.30;;;7.70;78.00;;;;;;4999362;28;20078;-80
2022/04/18 01:20:35;;;;;;;15.32;10.13;;;7.60;78.30;;;;;;4982490;28;20174;-81
2022/04/18 01:23:04;;;;;;;16.38;10.13;;;7.70;78.70;;;;;;4999876;28;20121;-79
2022/04/18 01:30:59;;;;;;;15.40;10.02;;;7.60;79.10;;;;;;4996888;28;20090;-78
2022/04/18 01:33:25;;;;;;;16.13;10.40;;;7.50;79.20;;;;;;4977811;28;20825;-79
2022/04/18 01:35:51;;;;;;;16.02;10.80;;;7.50;79.70;;;;;;4995312;28;20086;-80
2022/04/18 01:38:20;;;;;;;12.93;9.90;;;7.50;80.00;;;;;;4963121;28;20069;-80
2022/04/18 01:40:45;;;;;;;15.80;10.20;;;7.30;80.00;;;;;;4994785;28;20504;-78
2022/04/18 01:43:11;;;;;;;14.90;10.02;;;7.60;80.40;;;;;;5012493;28;20045;-80
2022/04/18 01:45:36;;;;;;;15.93;10.13;;;7.00;80.40;;;;;;4996784;28;20064;-79
2022/04/18 01:48:02;;;;;;;15.45;10.43;;;7.10;80.70;;;;;;4995634;28;20551;-79
2022/04/18 01:50:28;;;;;;;14.85;10.30;;;9.00;82.00;;;;;;4996404;28;20092;-81
2022/04/18 01:52:53;;;;;;;15.60;10.45;;;7.50;81.60;;;;;;4996131;28;20098;-78
2022/04/18 01:55:19;;;;;;;15.48;10.30;;;7.40;81.70;;;;;;5011752;28;20041;-78
2022/04/18 01:57:45;;;;;;;14.95;10.57;;;6.90;81.60;;;;;;5030364;28;20119;-79
2022/04/18 02:00:11;;;;;;;13.57;9.68;;;7.40;82.30;;;;;;5012687;28;20033;-78
2022/04/18 02:02:36;;;;;;;14.82;10.65;;;7.30;82.30;;;;;;4995480;28;20038;-80
2022/04/18 02:05:04;;;;;;;15.57;10.25;;;7.30;82.70;;;;;;5030090;28;20545;-78
2022/04/18 02:07:30;;;;;;;17.63;10.18;;;7.30;83.10;;;;;;4995632;28;20128;-78
2022/04/18 02:09:55;;;;;;;13.52;10.13;;;6.60;82.70;;;;;;5012360;28;20152;-80
2022/04/18 02:12:21;;;;;;;13.02;9.23;;;7.20;83.50;;;;;;5012319;28;20033;-78
2022/04/18 02:14:47;;;;;;;15.75;10.13;;;7.20;83.90;;;;;;4995300;28;20044;-80
2022/04/18 02:17:13;;;;;;;14.85;10.50;;;7.10;84.00;;;;;;5030241;28;20134;-83
2022/04/18 02:19:38;;;;;;;14.38;10.05;;;7.10;84.70;;;;;;5012294;28;20041;-79
2022/04/18 02:22:05;;;;;;;15.10;10.48;;;7.10;84.70;;;;;;5011518;28;20037;-81
2022/04/18 02:24:31;;;;;;;15.63;10.25;;;7.20;85.10;;;;;;5011884;28;20059;-78
2022/04/18 02:26:57;;;;;;;15.27;10.07;;;7.20;85.40;;;;;;4996071;28;20548;-79
2022/04/18 02:29:23;;;;;;;14.75;9.88;;;7.20;85.60;;;;;;4995636;28;20482;-80
2022/04/18 02:34:33;;;;;;;17.25;11.00;;;7.20;85.90;;;;;;5016228;28;20533;-79
2022/04/18 02:36:58;;;;;;;16.77;9.50;;;7.40;86.50;;;;;;4994801;28;20127;-80
2022/04/18 02:39:24;;;;;;;14.27;10.32;;;7.00;86.50;;;;;;4995396;28;20543;-82
2022/04/18 02:41:49;;;;;;;13.93;10.15;;;7.20;87.00;;;;;;4995092;28;20057;-79
2022/04/18 02:44:15;;;;;;;18.85;10.90;;;7.20;87.10;;;;;;4978359;28;20041;-82
2022/04/18 02:46:41;;;;;;;19.08;11.13;;;6.60;86.60;;;;;;4995605;28;20091;-81
2022/04/18 02:49:06;;;;;;;14.73;10.27;;;7.00;86.80;;;;;;5010596;28;20084;-80
2022/04/18 02:51:32;;;;;;;14.68;10.63;;;7.10;87.00;;;;;;5010729;28;20087;-81
2022/04/18 02:53:59;;;;;;;18.98;11.55;;;6.60;87.10;;;;;;5011182;28;20034;-80
2022/04/18 02:56:24;;;;;;;18.15;11.65;;;7.10;87.50;;;;;;5011204;28;20076;-80
2022/04/18 02:58:50;;;;;;;19.45;10.77;;;7.10;88.40;;;;;;4994454;28;20079;-82
2022/04/18 03:01:16;;;;;;;21.33;11.88;;;6.40;87.90;;;;;;5011393;28;20077;-81
2022/04/18 03:03:42;;;;;;;18.13;11.52;;;6.80;88.50;;;;;;4994837;28;20587;-80
2022/04/18 03:06:08;;;;;;;20.60;12.82;;;6.80;88.30;;;;;;4995092;28;20046;-78
2022/04/18 03:08:33;;;;;;;22.35;12.38;;;7.10;88.80;;;;;;4995858;28;20039;-80
2022/04/18 03:11:05;;;;;;;25.67;12.70;;;7.10;88.70;;;;;;5029281;28;20106;-81
2022/04/18 03:13:33;;;;;;;21.90;12.82;;;7.10;88.50;;;;;;4994667;28;20045;-81
2022/04/18 03:15:59;;;;;;;21.38;13.00;;;7.10;88.70;;;;;;5029012;28;20091;-80
2022/04/18 03:18:25;;;;;;;24.48;13.75;;;7.00;88.80;;;;;;4994106;28;20077;-81
2022/04/18 03:20:50;;;;;;;19.58;13.50;;;7.00;89.00;;;;;;5029176;28;20034;-82
2022/04/18 03:23:16;;;;;;;23.55;12.52;;;7.00;89.20;;;;;;5028496;28;20084;-80
2022/04/18 03:25:42;;;;;;;21.73;12.35;;;7.00;89.40;;;;;;5010375;28;20037;-80
2022/04/18 03:28:09;;;;;;;23.73;13.27;;;6.80;89.50;;;;;;5010850;28;20053;-79
2022/04/18 03:30:34;;;;;;;21.23;13.63;;;6.60;89.50;;;;;;4994493;28;20037;-80
2022/04/18 03:33:00;;;;;;;24.48;13.25;;;6.90;90.00;;;;;;4993741;28;20045;-80
2022/04/18 03:35:27;;;;;;;23.67;13.75;;;6.80;90.00;;;;;;5028537;28;20053;-79
2022/04/18 03:40:37;;;;;;;22.42;13.13;;;6.90;90.20;;;;;;4996949;28;20076;-78
2022/04/18 03:43:03;;;;;;;23.55;14.32;;;6.90;90.30;;;;;;4993850;28;20057;-78
2022/04/18 03:45:29;;;;;;;24.67;13.27;;;6.90;90.40;;;;;;5010562;28;20056;-78
2022/04/18 03:47:54;;;;;;;24.98;13.48;;;6.90;90.50;;;;;;5028133;28;20060;-80
2022/04/18 03:50:20;;;;;;;26.80;14.18;;;6.90;90.60;;;;;;5010692;28;20045;-81
2022/04/18 03:52:45;;;;;;;25.95;14.43;;;6.80;90.60;;;;;;5028348;28;20037;-78
2022/04/18 03:55:12;;;;;;;23.45;13.63;;;6.80;90.60;;;;;;5027740;28;20045;-80
2022/04/18 03:57:38;;;;;;;27.88;14.63;;;6.70;90.70;;;;;;5028736;28;20041;-79
2022/04/18 04:00:05;;;;;;;27.63;13.63;;;6.70;90.90;;;;;;5009770;28;20053;-77
2022/04/18 04:02:30;;;;;;;29.42;14.13;;;6.70;91.00;;;;;;5010269;28;20045;-79
2022/04/18 04:04:56;;;;;;;24.67;13.38;;;6.70;91.20;;;;;;4993899;28;20401;-78
2022/04/18 04:07:22;;;;;;;23.75;12.65;;;6.70;91.30;;;;;;5028010;28;20450;-77
2022/04/18 04:09:47;;;;;;;22.73;12.73;;;6.60;91.30;;;;;;5028322;28;20363;-78
2022/04/18 04:12:13;;;;;;;23.33;12.10;;;6.60;91.30;;;;;;5010316;28;20051;-78
2022/04/18 04:14:39;;;;;;;21.95;11.77;;;6.60;91.40;;;;;;4993355;28;20478;-79
2022/04/18 04:17:04;;;;;;;21.08;12.57;;;6.60;91.50;;;;;;5010662;28;20445;-80
2022/04/18 04:19:30;;;;;;;20.15;11.45;;;6.70;91.60;;;;;;5010606;28;20040;-79
2022/04/18 04:21:56;;;;;;;19.00;11.35;;;6.60;91.60;;;;;;5009631;28;20045;-79
2022/04/18 04:24:22;;;;;;;20.15;11.60;;;6.60;91.70;;;;;;5010371;28;20038;-78
2022/04/18 04:26:48;;;;;;;21.33;12.63;;;6.60;91.70;;;;;;5010653;28;20037;-80
2022/04/18 04:29:15;;;;;;;20.45;11.15;;;8.30;92.30;;;;;;5009498;28;20044;-79
2022/04/18 04:31:40;;;;;;;21.73;12.15;;;6.60;91.90;;;;;;5010857;28;20045;-79
2022/04/18 04:34:06;;;;;;;19.92;11.95;;;6.60;92.10;;;;;;5010172;28;20033;-78
2022/04/18 04:36:32;;;;;;;20.48;11.60;;;7.10;92.30;;;;;;5010098;28;20450;-80
2022/04/18 04:38:57;;;;;;;21.15;11.48;;;6.60;92.20;;;;;;4994156;28;20033;-79
2022/04/18 04:41:23;;;;;;;18.17;11.00;;;6.60;92.20;;;;;;5027865;28;20432;-80
2022/04/18 04:43:49;;;;;;;22.67;11.43;;;6.20;92.30;;;;;;5009528;28;20137;-81
2022/04/18 04:46:14;;;;;;;17.63;11.35;;;6.60;92.30;;;;;;5010079;28;20044;-81
2022/04/18 04:48:40;;;;;;;18.50;10.90;;;6.60;92.40;;;;;;5028313;28;20080;-81
2022/04/18 04:51:06;;;;;;;17.88;11.00;;;6.50;92.50;;;;;;4993152;28;20144;-79
2022/04/18 04:53:31;;;;;;;16.23;11.27;;;6.50;92.70;;;;;;4993758;28;20100;-81
2022/04/18 04:55:57;;;;;;;16.25;10.68;;;6.30;92.70;;;;;;5011578;28;20045;-80
2022/04/18 04:58:22;;;;;;;14.25;9.88;;;6.50;92.90;;;;;;5013746;28;20037;-81
2022/04/18 05:00:48;;;;;;;16.00;10.88;;;6.50;93.10;;;;;;5013942;28;20081;-80
2022/04/18 05:03:13;;;;;;;17.55;11.82;;;6.50;93.10;;;;;;4993707;28;20084;-82
2022/04/18 05:05:40;;;;;;;19.02;10.68;;;6.50;93.20;;;;;;4993318;28;20466;-81
2022/04/18 05:08:05;;;;;;;16.00;10.02;;;6.50;93.30;;;;;;5009977;28;20041;-81
2022/04/18 05:10:31;;;;;;;15.45;9.98;;;6.50;93.30;;;;;;5027368;28;20087;-80
2022/04/18 05:12:56;;;;;;;14.25;10.07;;;6.50;93.30;;;;;;5029304;28;20045;-80
2022/04/18 05:15:22;;;;;;;16.80;10.55;;;6.40;93.30;;;;;;5031391;28;20060;-81
2022/04/18 05:17:48;;;;;;;17.95;10.55;;;6.50;93.40;;;;;;5012925;28;20375;-81
2022/04/18 05:20:13;;;;;;;15.52;9.15;;;6.20;93.40;;;;;;5031551;28;20045;-79
2022/04/18 05:22:39;;;;;;;14.15;8.93;;;6.50;93.50;;;;;;5031380;28;20049;-81
2022/04/18 05:25:05;;;;;;;15.95;9.60;;;6.00;93.30;;;;;;5030713;28;20045;-79
2022/04/18 05:27:30;;;;;;;15.43;9.68;;;6.50;93.60;;;;;;5013647;28;20037;-81
2022/04/18 05:29:56;;;;;;;15.68;8.82;;;6.50;93.60;;;;;;5013411;28;20477;-81
2022/04/18 05:32:22;;;;;;;14.90;9.57;;;6.50;93.60;;;;;;5030403;28;20117;-81
2022/04/18 05:34:50;;;;;;;12.80;8.85;;;6.60;93.60;;;;;;5013831;28;20139;-79
2022/04/18 05:37:16;;;;;;;17.05;9.65;;;6.60;93.70;;;;;;4997002;28;20096;-80
2022/04/18 05:39:41;;;;;;;14.10;8.95;;;6.50;93.80;;;;;;5030814;28;20094;-81
2022/04/18 05:42:07;;;;;;;13.40;8.95;;;6.60;93.70;;;;;;4996595;28;20060;-80
2022/04/18 05:44:33;;;;;;;12.70;9.38;;;6.60;93.70;;;;;;4996634;28;20055;-80
2022/04/18 05:47:00;;;;;;;12.32;8.48;;;6.70;93.90;;;;;;4996124;28;20049;-79
2022/04/18 05:49:26;;;;;;;15.57;9.82;;;6.70;93.90;;;;;;4996579;28;20046;-80
2022/04/18 05:51:51;;;;;;;11.95;8.57;;;6.70;94.10;;;;;;5013190;28;20037;-78
2022/04/18 05:54:17;;;;;;;13.23;9.00;;;6.70;94.10;;;;;;5012345;28;20060;-80
2022/04/18 05:56:43;;;;;;;10.20;8.27;;;7.10;94.30;;;;;;4996912;28;20033;-78
2022/04/18 05:59:08;;;;;;;13.73;8.95;;;6.80;94.30;;;;;;4997058;28;20548;-81
2022/04/18 06:01:35;;;;;;;13.00;8.27;;;6.80;94.30;;;;;;5030152;28;20033;-79
2022/04/18 06:04:01;;;;;;;11.63;8.48;;;6.80;94.10;;;;;;5030407;28;20045;-80
2022/04/18 06:06:27;;;;;;;12.32;7.85;;;6.90;94.30;;;;;;4996172;28;20045;-80
2022/04/18 06:08:53;;;;;;;12.40;8.93;;;6.90;94.30;;;;;;4995824;28;20132;-80
2022/04/18 06:11:18;;;;;;;10.85;8.20;;;7.00;94.20;;;;;;5012784;28;20045;-80
2022/04/18 06:13:44;;;;;;;9.55;7.63;;;7.00;94.20;;;;;;4995528;28;20068;-81
2022/04/18 06:16:10;;;;;;;12.90;7.93;;;7.10;94.20;;;;;;5012620;28;20041;-79
2022/04/18 06:18:37;;;;;;;10.88;7.38;;;7.10;94.10;;;;;;5012894;28;20053;-80
2022/04/18 06:21:03;;;;;;;10.70;7.50;;;7.20;93.90;;;;;;5029592;28;20033;-80
2022/04/18 06:23:29;;;;;;;9.88;7.22;;;7.20;94.00;;;;;;5029902;28;20064;-80
2022/04/18 06:25:55;;;;;;;10.73;7.32;;;7.20;94.00;;;;;;5012649;28;20393;-80
2022/04/18 06:28:20;;;;;;;11.50;8.55;;;7.30;94.10;;;;;;5011798;28;20401;-81
2022/04/18 06:30:46;;;;;;;11.55;7.70;;;7.40;94.00;;;;;;5012526;28;20107;-81
2022/04/18 06:33:12;;;;;;;16.92;8.48;;;7.50;93.90;;;;;;5012036;28;20416;-78
2022/04/18 06:35:38;;;;;;;9.85;7.78;;;7.50;94.00;;;;;;5029945;28;20037;-80
2022/04/18 06:38:04;;;;;;;13.73;8.13;;;7.60;94.20;;;;;;5012384;28;20041;-80
2022/04/18 06:40:30;;;;;;;15.10;7.90;;;7.70;94.30;;;;;;5012388;28;20102;-80
2022/04/18 06:42:56;;;;;;;11.82;7.65;;;7.80;94.10;;;;;;5011265;28;20041;-79
2022/04/18 06:45:22;;;;;;;12.23;7.60;;;9.20;94.30;;;;;;4996090;28;20046;-80
2022/04/18 06:47:48;;;;;;;9.77;6.82;;;7.90;94.00;;;;;;5013653;28;20060;-79
2022/04/18 06:50:13;;;;;;;13.23;8.73;;;8.00;94.00;;;;;;5035824;28;20144;-78
2022/04/18 06:52:50;;;;;;;15.18;8.75;;;9.60;94.40;;;;;;4996582;28;20037;-78
2022/04/18 06:55:15;;;;;;;10.55;7.72;;;8.20;93.70;;;;;;4980334;28;20449;-82
2022/04/18 06:57:41;;;;;;;10.27;7.78;;;8.20;93.60;;;;;;4995042;28;20138;-81
2022/04/18 07:00:08;;;;;;;11.25;7.90;;;8.30;93.60;;;;;;5012128;28;20060;-79
2022/04/18 07:02:33;;;;;;;8.70;7.10;;;8.40;93.50;;;;;;5011528;28;20075;-81
2022/04/18 07:04:59;;;;;;;10.57;7.50;;;8.40;93.20;;;;;;5028351;28;20545;-80
2022/04/18 07:07:25;;;;;;;10.88;7.63;;;8.50;93.00;;;;;;4995136;28;20049;-80
2022/04/18 07:09:50;;;;;;;10.15;7.20;;;8.60;93.10;;;;;;4995325;28;20429;-79
2022/04/18 07:12:21;;;;;;;9.82;7.30;;;8.60;93.00;;;;;;5010874;28;20042;-81
2022/04/18 07:14:46;;;;;;;7.65;6.80;;;8.50;92.60;;;;;;5029120;28;20050;-78
2022/04/18 07:17:12;;;;;;;10.55;7.47;;;10.30;92.70;;;;;;5011332;28;20048;-80
2022/04/18 07:19:38;;;;;;;8.93;7.20;;;9.00;92.10;;;;;;5029387;28;20099;-81
2022/04/18 07:22:04;;;;;;;12.82;6.70;;;9.10;92.00;;;;;;5011099;28;20037;-80
2022/04/18 07:24:30;;;;;;;9.60;6.80;;;9.20;91.80;;;;;;4994032;28;20053;-81
2022/04/18 07:27:00;;;;;;;11.45;7.30;;;9.20;91.80;;;;;;5029033;28;20413;-81
2022/04/18 07:29:27;;;;;;;11.70;7.65;;;9.40;91.70;;;;;;5011158;28;20508;-80
2022/04/18 07:31:52;;;;;;;10.13;6.50;;;9.10;91.20;;;;;;5028053;28;20124;-79
2022/04/18 07:34:18;;;;;;;9.40;7.05;;;9.50;90.90;;;;;;5010810;28;20128;-80
2022/04/18 07:36:44;;;;;;;9.70;6.60;;;9.70;90.80;;;;;;5010860;28;20113;-80
2022/04/18 07:39:09;;;;;;;12.75;7.80;;;9.80;90.20;;;;;;4994193;28;20392;-79
2022/04/18 07:41:35;;;;;;;10.30;6.45;;;9.90;89.70;;;;;;5011456;28;20456;-80
2022/04/18 07:44:03;;;;;;;10.65;6.38;;;11.50;90.20;;;;;;5010838;28;20045;-80
2022/04/18 07:46:29;;;;;;;11.48;6.80;;;9.70;88.90;;;;;;5010564;28;20042;-79
2022/04/18 07:48:56;;;;;;;10.02;6.60;;;10.00;88.90;;;;;;5011152;28;20049;-82
2022/04/18 07:51:42;;;;;;;7.50;5.82;;;10.20;88.40;;;;;;5011178;28;20053;-82
2022/04/18 07:54:11;;;;;;;9.75;6.13;;;10.30;88.10;;;;;;5027748;28;20045;-82
2022/04/18 07:56:37;;;;;;;9.07;6.00;;;10.40;87.80;;;;;;5010682;28;20045;-79
2022/04/18 07:59:03;;;;;;;8.88;5.75;;;10.20;87.70;;;;;;5028555;28;20365;-82
2022/04/18 08:01:28;;;;;;;8.65;5.72;;;10.60;87.90;;;;;;5009479;28;20139;-82
2022/04/18 08:03:54;;;;;;;9.13;5.43;;;10.70;87.20;;;;;;5028184;28;20055;-82
2022/04/18 08:06:20;;;;;;;8.85;5.75;;;10.80;86.30;;;;;;5010184;28;20095;-80
2022/04/18 08:08:46;;;;;;;10.00;6.20;;;10.80;85.60;;;;;;4994659;28;20049;-81
2022/04/18 08:11:14;;;;;;;8.73;5.28;;;11.00;84.70;;;;;;5028514;28;20042;-80
2022/04/18 08:13:41;;;;;;;7.32;4.95;;;11.00;84.20;;;;;;5010163;28;20073;-81
2022/04/18 08:16:08;;;;;;;10.38;5.55;;;11.20;83.20;;;;;;5010454;28;20060;-79
2022/04/18 08:18:36;;;;;;;8.05;5.50;;;11.10;82.00;;;;;;4994235;28;20358;-81
2022/04/18 08:21:12;;;;;;;9.30;5.63;;;11.20;80.30;;;;;;4993920;28;20030;-79
2022/04/18 08:23:38;;;;;;;8.50;5.07;;;11.50;79.40;;;;;;5010502;28;20080;-81
2022/04/18 08:26:04;;;;;;;9.30;5.65;;;11.20;79.90;;;;;;5010506;28;20473;-81
2022/04/18 08:28:31;;;;;;;6.95;5.60;;;11.60;80.20;;;;;;4993322;28;20060;-79
2022/04/18 08:30:56;;;;;;;8.18;5.30;;;11.50;79.50;;;;;;5010127;28;20033;-81
2022/04/18 08:33:22;;;;;;;7.35;5.30;;;12.30;78.70;;;;;;5010126;28;20100;-82
2022/04/18 08:35:48;;;;;;;8.25;5.32;;;11.70;78.60;;;;;;5010140;28;20092;-82
2022/04/18 08:38:14;;;;;;;7.05;5.22;;;12.90;79.70;;;;;;4995739;28;20049;-80
2022/04/18 08:40:43;;;;;;;8.93;5.03;;;12.10;79.30;;;;;;5001313;28;20049;-80
2022/04/18 08:43:09;;;;;;;8.10;5.45;;;13.80;78.90;;;;;;4995355;28;20106;-83
2022/04/18 08:45:37;;;;;;;8.80;4.55;;;11.50;77.70;;;;;;5010305;28;20481;-82
2022/04/18 08:53:35;;;;;;;10.98;4.70;;;12.30;76.80;;;;;;5017139;28;20502;-82
2022/04/18 08:56:00;;;;;;;10.90;5.32;;;12.70;76.30;;;;;;5013189;28;20069;-82
2022/04/18 08:58:27;;;;;;;7.35;5.32;;;12.60;76.10;;;;;;5014437;28;20466;-82
2022/04/18 09:00:55;;;;;;;6.45;5.65;;;12.80;75.20;;;;;;4997927;28;20646;-83
2022/04/18 09:03:20;;;;;;;6.00;5.35;;;12.90;75.60;;;;;;4996518;28;20688;-82
2022/04/18 09:05:46;;;;;;;8.65;5.43;;;14.00;77.00;;;;;;5013790;28;20045;-83
2022/04/18 09:08:13;;;;;;;10.23;5.90;;;12.70;76.20;;;;;;4997383;28;20037;-83
2022/04/18 09:10:40;;;;;;;10.45;5.70;;;13.10;75.90;;;;;;4997268;28;20132;-82
2022/04/18 09:13:08;;;;;;;10.82;5.95;;;13.20;75.50;;;;;;4997364;28;20050;-81
2022/04/18 09:15:41;;;;;;;6.32;5.30;;;13.10;76.00;;;;;;4997523;28;20041;-81
2022/04/18 09:18:11;;;;;;;11.55;6.22;;;13.50;76.20;;;;;;4997199;28;20096;-81
2022/04/18 09:20:44;;;;;;;9.93;6.97;;;13.70;76.00;;;;;;4997787;28;20077;-80
2022/04/18 09:23:24;;;;;;;8.55;6.07;;;15.00;77.10;;;;;;5013194;28;20044;-81
2022/04/18 09:26:08;;;;;;;9.70;6.70;;;14.00;75.70;;;;;;4980778;28;20136;-82
2022/04/18 09:28:41;;;;;;;14.37;6.73;;;14.00;76.10;;;;;;5014055;28;20436;-81
2022/04/18 09:31:12;;;;;;;7.53;5.63;;;14.20;76.60;;;;;;5012621;28;20060;-81
2022/04/18 09:33:37;;;;;;;8.60;5.90;;;14.30;76.20;;;;;;4997504;28;20077;-81
2022/04/18 09:36:09;;;;;;;6.85;4.65;;;15.90;76.70;;;;;;5013641;28;20123;-82
2022/04/18 09:38:37;;;;;;;7.65;4.68;;;14.50;74.50;;;;;;4996615;28;20599;-83
2022/04/18 09:41:03;;;;;;;9.35;6.07;;;14.70;74.50;;;;;;4980673;28;20037;-82
2022/04/18 09:43:45;;;;;;;9.35;5.93;;;14.80;74.00;;;;;;4996537;28;20427;-82
2022/04/18 09:46:13;;;;;;;8.60;5.43;;;15.00;72.70;;;;;;4998293;28;20093;-83
2022/04/18 09:48:40;;;;;;;8.30;5.45;;;15.10;73.80;;;;;;5013563;28;20049;-82
2022/04/18 09:51:08;;;;;;;7.10;5.15;;;15.30;73.10;;;;;;5013268;28;20667;-82
2022/04/18 09:53:36;;;;;;;6.30;5.38;;;15.30;72.50;;;;;;5029848;28;20240;-81
2022/04/18 09:56:01;;;;;;;5.93;4.68;;;15.40;72.10;;;;;;4972416;28;20038;-83
2022/04/18 09:58:27;;;;;;;11.27;5.45;;;15.50;71.90;;;;;;4996455;28;20056;-82
2022/04/18 10:00:54;;;;;;;6.22;4.55;;;15.50;70.70;;;;;;5012445;28;20099;-82
2022/04/18 10:03:20;;;;;;;10.07;5.70;;;15.60;70.20;;;;;;5012263;28;20037;-82
2022/04/18 10:05:48;;;;;;;6.97;5.15;;;16.70;71.00;;;;;;5012335;28;20048;-82
2022/04/18 10:08:14;;;;;;;7.70;4.50;;;15.90;70.40;;;;;;5012439;28;20042;-81
2022/04/18 10:10:40;;;;;;;6.97;4.38;;;17.00;70.60;;;;;;5012981;28;20045;-79
2022/04/18 10:13:07;;;;;;;4.78;4.22;;;17.20;69.90;;;;;;4995257;28;20106;-80
2022/04/18 10:15:37;;;;;;;4.13;3.70;;;17.20;68.50;;;;;;4996746;28;20077;-82
2022/04/18 10:18:05;;;;;;;5.70;3.78;;;16.30;66.90;;;;;;5014284;28;20052;-79
2022/04/18 10:20:53;;;;;;;4.82;3.92;;;15.80;65.80;;;;;;5030088;28;20088;-80
2022/04/18 10:23:56;;;;;;;4.75;4.35;;;16.30;66.30;;;;;;4981856;28;20135;-82
2022/04/18 10:26:34;;;;;;;6.25;3.72;;;16.30;65.40;;;;;;4998877;28;20491;-82
2022/04/18 10:29:11;;;;;;;3.70;3.40;;;16.40;65.80;;;;;;5012591;28;20038;-82
2022/04/18 10:31:40;;;;;;;5.25;4.13;;;17.00;66.30;;;;;;5017312;28;20041;-83
2022/04/18 10:34:06;;;;;;;5.13;3.72;;;16.60;66.10;;;;;;4995944;28;20164;-82
2022/04/18 10:36:33;;;;;;;6.07;3.55;;;17.30;66.10;;;;;;4995990;28;20049;-82
2022/04/18 10:39:08;;;;;;;5.50;3.33;;;16.90;64.00;;;;;;4995898;28;20037;-81
2022/04/18 10:41:42;;;;;;;6.78;3.28;;;17.00;63.00;;;;;;5007984;28;20542;-81
2022/04/18 10:44:13;;;;;;;3.05;1.98;;;17.00;62.80;;;;;;4949290;28;20062;-79
2022/04/18 10:47:01;;;;;;;5.25;3.63;;;17.10;61.70;;;;;;4984865;28;20053;-82
2022/04/18 10:49:31;;;;;;;4.68;2.80;;;17.30;61.30;;;;;;4964257;28;20466;-82
2022/04/18 10:52:05;;;;;;;4.03;2.90;;;17.40;61.20;;;;;;4996095;28;20117;-79
2022/04/18 10:54:31;;;;;;;4.05;2.50;;;17.50;60.10;;;;;;4977817;28;20042;-81
2022/04/18 10:57:02;;;;;;;3.20;2.90;;;17.60;59.90;;;;;;4994597;28;20097;-79
2022/04/18 10:59:30;;;;;;;3.38;2.40;;;17.70;60.00;;;;;;4977980;28;20089;-82
2022/04/18 11:01:58;;;;;;;3.38;2.40;;;18.70;60.00;;;;;;4978601;28;20549;-82
2022/04/18 11:04:38;;;;;;;3.38;2.22;;;18.00;58.30;;;;;;4976861;28;20053;-83
2022/04/18 11:07:06;;;;;;;2.78;2.28;;;19.00;57.40;;;;;;4996063;28;20046;-83
2022/04/18 11:09:36;;;;;;;3.38;2.60;;;19.00;56.60;;;;;;4976768;28;20043;-82
2022/04/18 11:12:12;;;;;;;3.15;2.90;;;18.20;55.30;;;;;;4994822;28;20707;-83
2022/04/18 11:14:38;;;;;;;3.75;2.70;;;18.30;55.40;;;;;;4998170;28;20038;-82
2022/04/18 11:17:05;;;;;;;3.65;2.92;;;18.40;56.20;;;;;;5005637;28;20586;-82
2022/04/18 11:19:41;;;;;;;2.40;2.20;;;18.60;56.70;;;;;;4986916;28;20049;-81
2022/04/18 11:22:07;;;;;;;4.40;2.42;;;18.80;55.60;;;;;;4999908;28;20041;-83
2022/04/18 11:24:57;;;;;;;3.42;3.05;;;19.00;54.50;;;;;;4985878;28;20045;-82
2022/04/18 11:27:31;;;;;;;2.70;2.20;;;19.20;54.50;;;;;;4980379;28;20050;-80
2022/04/18 11:29:59;;;;;;;3.58;2.72;;;19.20;53.80;;;;;;4994539;28;20414;-83
2022/04/18 11:32:27;;;;;;;3.95;2.45;;;19.30;54.20;;;;;;4976511;28;20080;-81
2022/04/18 11:34:54;;;;;;;5.78;2.67;;;19.40;54.10;;;;;;4988204;28;20402;-81
2022/04/18 11:37:24;;;;;;;3.20;2.53;;;19.50;54.20;;;;;;4960375;28;20078;-84
2022/04/18 11:39:52;;;;;;;4.60;2.70;;;19.60;54.00;;;;;;4985496;28;20042;-83
2022/04/18 11:42:32;;;;;;;2.80;2.60;;;19.80;53.60;;;;;;5008708;28;20042;-81
2022/04/18 11:45:02;;;;;;;2.13;2.03;;;19.90;52.90;;;;;;4999685;28;20101;-80
2022/04/18 11:47:29;;;;;;;2.78;2.53;;;20.00;51.70;;;;;;5003274;28;20044;-80
2022/04/18 11:50:00;;;;;;;5.00;2.20;;;20.00;51.80;;;;;;5019817;28;20418;-82
2022/04/18 11:52:28;;;;;;;3.38;2.08;;;20.10;51.50;;;;;;4998739;28;20084;-79
2022/04/18 11:54:55;;;;;;;4.38;2.47;;;20.20;51.20;;;;;;4999595;28;20505;-82
2022/04/18 11:57:21;;;;;;;2.80;2.20;;;20.30;50.30;;;;;;4999078;28;20048;-84
2022/04/18 11:59:47;;;;;;;4.03;2.65;;;20.40;50.80;;;;;;5015982;28;20037;-82
2022/04/18 12:07:46;;;;;;;3.22;2.28;;;21.40;50.30;;;;;;5016894;28;20101;-80
2022/04/18 12:10:24;;;;;;;2.95;2.22;;;20.80;49.60;;;;;;5019923;28;20053;-81
2022/04/18 12:12:50;;;;;;;3.05;2.67;;;21.00;49.50;;;;;;5001973;28;20045;-83
2022/04/18 12:15:16;;;;;;;2.97;2.20;;;21.50;50.30;;;;;;4999841;28;20049;-83
2022/04/18 12:17:42;;;;;;;2.90;2.60;;;21.10;48.80;;;;;;5019498;28;20041;-81
2022/04/18 12:20:25;;;;;;;3.33;2.88;;;21.10;46.70;;;;;;5004096;28;20453;-83
2022/04/18 12:22:53;;;;;;;2.67;2.25;;;21.10;47.70;;;;;;5002261;28;20096;-84
2022/04/18 12:25:23;;;;;;;2.55;2.15;;;21.10;47.70;;;;;;4999157;28;20056;-81
2022/04/18 12:27:50;;;;;;;2.53;2.22;;;21.30;48.90;;;;;;5016085;28;20057;-80
2022/04/18 12:30:16;;;;;;;2.25;2.05;;;21.20;47.90;;;;;;5001661;28;20045;-81
2022/04/18 12:32:47;;;;;;;4.82;2.60;;;21.40;48.50;;;;;;4983804;28;20033;-84
2022/04/18 12:35:31;;;;;;;4.50;2.13;;;21.50;47.40;;;;;;5017632;28;20049;-81
2022/04/18 12:38:05;;;;;;;2.30;2.10;;;21.60;44.40;;;;;;4999301;28;20151;-83
2022/04/18 12:40:35;;;;;;;3.20;2.50;;;21.50;45.90;;;;;;5019645;28;20414;-82
2022/04/18 12:43:12;;;;;;;4.50;2.55;;;21.50;46.80;;;;;;4991946;28;20046;-82
2022/04/18 12:45:47;;;;;;;4.43;4.00;;;21.60;46.70;;;;;;4983352;28;20132;-83
2022/04/18 12:48:13;;;;;;;4.63;2.53;;;21.70;46.60;;;;;;4987594;28;20282;-84
2022/04/18 12:50:40;;;;;;;4.43;2.30;;;21.70;44.00;;;;;;4974270;28;20188;-83
2022/04/18 12:53:05;;;;;;;2.28;1.90;;;21.60;44.20;;;;;;4973985;28;20050;-83
2022/04/18 12:55:31;;;;;;;2.65;2.28;;;21.40;43.70;;;;;;4981839;28;20394;-84
2022/04/18 12:57:58;;;;;;;3.17;2.30;;;21.40;43.90;;;;;;4999757;28;20105;-83
2022/04/18 13:00:24;;;;;;;2.55;1.98;;;21.50;44.80;;;;;;4972111;28;20054;-84
2022/04/18 13:03:01;;;;;;;4.60;2.50;;;21.90;45.40;;;;;;4973776;28;20049;-82
2022/04/18 13:05:33;;;;;;;3.40;2.60;;;21.50;44.00;;;;;;4974182;28;20042;-83
2022/04/18 13:08:04;;;;;;;3.42;2.47;;;21.40;44.90;;;;;;4959148;28;20502;-83